Time;durP1;ratioP1;P1;durP2;ratioP2;P2;SDS_P1;SDS_P2;PMS_P1;PMS_P2;Temp;Humidity;BMP_temperature;BMP_pressure;BME280_temperature;BME280_humidity;BME280_pressure;Samples;Min_cycle;Max_cycle;Signal;HPM_P1;HPM_P2
2023/04/04 00:01:03;;;;;;;13.77;9.15;;;;;;;;;;2046221;28;20039;-81
2023/04/04 00:02:24;;;;;;;16.90;10.02;;;;;;;;;;2042789;28;20027;-81
2023/04/04 00:03:45;;;;;;;15.20;9.18;;;;;;;;;;2040385;29;20043;-81
2023/04/04 00:05:07;;;;;;;14.93;9.55;;;;;;;;;;2035820;29;20055;-80
2023/04/04 00:06:28;;;;;;;10.50;9.25;;;;;;;;;;2037927;29;20040;-80
2023/04/04 00:07:49;;;;;;;14.55;9.40;;;;;;;;;;2042799;28;20032;-80
2023/04/04 00:09:11;;;;;;;14.95;9.07;;;;;;;;;;2047070;29;20487;-81
2023/04/04 00:10:32;;;;;;;;;;;;;;;;;;2039819;29;20415;-81
2023/04/04 00:11:54;;;;;;;22.83;10.15;;;;;;;;;;2044320;28;19938;-81
2023/04/04 00:13:15;;;;;;;15.55;9.30;;;;;;;;;;2047527;29;20498;-81
2023/04/04 00:14:36;;;;;;;13.60;9.43;;;;;;;;;;2040123;29;20032;-81
2023/04/04 00:15:57;;;;;;;14.20;8.98;;;;;;;;;;2045864;29;20035;-81
2023/04/04 00:17:18;;;;;;;12.93;8.67;;;;;;;;;;2046791;28;20046;-80
2023/04/04 00:18:39;;;;;;;12.15;9.43;;;;;;;;;;2045972;29;20461;-81
2023/04/04 00:20:00;;;;;;;9.80;7.97;;;;;;;;;;2047086;29;20034;-81
2023/04/04 00:21:24;;;;;;;12.40;8.57;;;;;;;;;;2039689;29;20381;-81
2023/04/04 00:22:45;;;;;;;10.40;9.20;;;;;;;;;;2034288;29;20044;-81
2023/04/04 00:24:06;;;;;;;15.35;9.10;;;;;;;;;;2039394;29;20043;-80
2023/04/04 00:25:27;;;;;;;11.93;8.77;;;;;;;;;;2039454;29;20368;-81
2023/04/04 00:26:48;;;;;;;10.30;8.40;;;;;;;;;;2049585;28;20452;-81
2023/04/04 00:28:09;;;;;;;10.88;7.93;;;;;;;;;;2046879;28;20042;-80
2023/04/04 00:29:30;;;;;;;10.77;8.68;;;;;;;;;;2038624;29;20066;-80
2023/04/04 00:30:51;;;;;;;12.45;9.07;;;;;;;;;;2043069;29;20031;-81
2023/04/04 00:32:12;;;;;;;15.38;9.50;;;;;;;;;;2047158;28;20031;-81
2023/04/04 00:33:33;;;;;;;11.02;8.85;;;;;;;;;;2047265;29;20082;-81
2023/04/04 00:34:56;;;;;;;12.75;9.40;;;;;;;;;;2044426;29;20491;-81
2023/04/04 00:36:17;;;;;;;12.65;9.50;;;;;;;;;;2045998;29;20031;-81
2023/04/04 00:37:38;;;;;;;19.88;11.15;;;;;;;;;;2036568;28;20044;-80
2023/04/04 00:38:59;;;;;;;15.02;9.48;;;;;;;;;;2043948;29;20454;-80
2023/04/04 00:40:20;;;;;;;18.52;10.77;;;;;;;;;;2043242;28;20074;-80
2023/04/04 00:41:41;;;;;;;13.68;8.50;;;;;;;;;;2045649;29;20035;-81
2023/04/04 00:43:02;;;;;;;9.30;8.37;;;;;;;;;;2047064;29;20039;-80
2023/04/04 00:44:23;;;;;;;11.82;8.45;;;;;;;;;;2044187;29;20465;-80
2023/04/04 00:45:44;;;;;;;13.40;9.18;;;;;;;;;;2044646;28;20036;-81
2023/04/04 00:47:05;;;;;;;16.08;10.02;;;;;;;;;;2045112;29;20499;-81
2023/04/04 00:48:27;;;;;;;14.98;9.50;;;;;;;;;;2045071;28;20109;-81
2023/04/04 00:49:48;;;;;;;15.27;8.73;;;;;;;;;;2039489;29;20032;-81
2023/04/04 00:51:09;;;;;;;12.60;9.32;;;;;;;;;;2043225;29;20427;-81
2023/04/04 00:52:29;;;;;;;14.57;9.07;;;;;;;;;;2037813;29;20031;-81
2023/04/04 00:53:51;;;;;;;10.75;9.40;;;;;;;;;;2035876;29;20031;-81
2023/04/04 00:55:12;;;;;;;13.55;9.77;;;;;;;;;;2044098;28;20051;-81
2023/04/04 00:56:34;;;;;;;14.95;9.45;;;;;;;;;;2047457;28;20039;-81
2023/04/04 00:57:56;;;;;;;19.02;10.15;;;;;;;;;;2047087;28;20047;-80
2023/04/04 00:59:17;;;;;;;13.82;9.75;;;;;;;;;;2046149;28;20399;-81
2023/04/04 01:00:38;;;;;;;13.82;9.25;;;;;;;;;;2048038;28;20423;-80
2023/04/04 01:02:00;;;;;;;35.90;13.93;;;;;;;;;;2053991;23;20178;-67
2023/04/04 01:03:21;;;;;;;20.65;10.15;;;;;;;;;;2029215;29;20045;-68
2023/04/04 01:04:42;;;;;;;10.65;9.13;;;;;;;;;;2030598;29;20036;-67
2023/04/04 01:06:03;;;;;;;14.85;10.10;;;;;;;;;;2029310;29;20407;-67
2023/04/04 01:07:24;;;;;;;17.25;9.93;;;;;;;;;;2035171;29;20043;-67
2023/04/04 01:08:45;;;;;;;20.13;10.63;;;;;;;;;;2028301;29;20135;-67
2023/04/04 01:10:06;;;;;;;14.95;10.02;;;;;;;;;;2032566;29;20376;-67
2023/04/04 01:11:27;;;;;;;17.23;10.27;;;;;;;;;;2038425;29;20454;-67
2023/04/04 01:12:48;;;;;;;11.40;9.00;;;;;;;;;;2036126;29;20036;-67
2023/04/04 01:14:09;;;;;;;16.08;9.88;;;;;;;;;;2028048;29;20055;-68
2023/04/04 01:15:30;;;;;;;13.88;10.18;;;;;;;;;;2034258;29;20040;-67
2023/04/04 01:16:51;;;;;;;13.27;9.43;;;;;;;;;;2038223;29;20491;-67
2023/04/04 01:18:14;;;;;;;15.35;10.30;;;;;;;;;;2037482;29;20447;-68
2023/04/04 01:19:37;;;;;;;18.00;10.63;;;;;;;;;;2029007;29;20029;-67
2023/04/04 01:21:01;;;;;;;18.58;10.90;;;;;;;;;;2035969;29;20069;-67
2023/04/04 01:22:22;;;;;;;11.45;9.07;;;;;;;;;;2037030;29;20039;-67
2023/04/04 01:23:46;;;;;;;18.80;10.07;;;;;;;;;;2039683;29;20032;-68
2023/04/04 01:25:07;;;;;;;11.65;8.98;;;;;;;;;;2035434;29;20044;-67
2023/04/04 01:26:28;;;;;;;19.17;9.95;;;;;;;;;;2038534;29;20060;-67
2023/04/04 01:27:49;;;;;;;12.25;9.32;;;;;;;;;;2037857;29;20078;-68
2023/04/04 01:29:10;;;;;;;10.05;9.02;;;;;;;;;;2032707;29;20028;-67
2023/04/04 01:30:32;;;;;;;14.13;8.88;;;;;;;;;;2034531;29;20036;-68
2023/04/04 01:31:59;;;;;;;15.63;9.60;;;;;;;;;;2042325;29;20031;-67
2023/04/04 01:33:26;;;;;;;20.50;9.05;;;;;;;;;;2047046;29;20059;-67
2023/04/04 01:34:56;;;;;;;14.73;10.05;;;;;;;;;;2037417;29;20028;-67
2023/04/04 01:36:31;;;;;;;13.18;8.82;;;;;;;;;;2040216;29;20357;-68
2023/04/04 01:38:12;;;;;;;12.85;9.90;;;;;;;;;;2039148;28;20032;-67
2023/04/04 01:39:45;;;;;;;16.83;9.70;;;;;;;;;;2039758;29;20047;-67
2023/04/04 01:41:07;;;;;;;18.65;10.68;;;;;;;;;;2039583;29;20499;-67
2023/04/04 01:42:28;;;;;;;;;;;;;;;;;;2041897;29;20498;-67
2023/04/04 01:43:50;;;;;;;17.42;10.07;;;;;;;;;;2038677;29;19915;-67
2023/04/04 01:45:11;;;;;;;13.82;9.73;;;;;;;;;;2031846;29;20036;-67
2023/04/04 01:46:32;;;;;;;15.23;10.32;;;;;;;;;;2028843;29;20044;-67
2023/04/04 01:47:53;;;;;;;13.02;8.55;;;;;;;;;;2036232;28;20446;-67
2023/04/04 01:49:14;;;;;;;13.38;9.63;;;;;;;;;;2038401;29;20036;-68
2023/04/04 01:50:35;;;;;;;12.18;9.05;;;;;;;;;;2031611;29;20032;-67
2023/04/04 01:51:56;;;;;;;25.70;11.90;;;;;;;;;;2036229;29;20400;-67
2023/04/04 01:53:16;;;;;;;13.95;9.60;;;;;;;;;;2039686;29;20369;-67
2023/04/04 01:54:37;;;;;;;19.85;10.60;;;;;;;;;;2037420;29;20024;-67
2023/04/04 01:55:58;;;;;;;10.43;9.07;;;;;;;;;;2038711;29;20039;-67
2023/04/04 01:57:19;;;;;;;14.02;9.13;;;;;;;;;;2037257;29;20031;-67
2023/04/04 01:58:42;;;;;;;13.20;10.05;;;;;;;;;;2033914;29;20622;-67
2023/04/04 02:00:04;;;;;;;;;;;;;;;;;;2040983;29;20023;-67
2023/04/04 02:01:25;;;;;;;16.25;9.57;;;;;;;;;;2038322;29;19939;-67
2023/04/04 02:02:45;;;;;;;15.68;10.38;;;;;;;;;;2037856;29;20099;-67
2023/04/04 02:04:09;;;;;;;21.92;9.93;;;;;;;;;;2032899;29;20031;-67
2023/04/04 02:05:31;;;;;;;13.00;9.18;;;;;;;;;;2029025;29;20160;-67
2023/04/04 02:06:51;;;;;;;23.25;12.07;;;;;;;;;;2027179;29;20076;-67
2023/04/04 02:08:14;;;;;;;17.85;9.60;;;;;;;;;;2031017;29;20046;-67
2023/04/04 02:09:34;;;;;;;;;;;;;;;;;;2036732;29;20091;-67
2023/04/04 02:10:58;;;;;;;14.65;9.50;;;;;;;;;;2039796;29;19915;-67
2023/04/04 02:12:19;;;;;;;14.50;8.60;;;;;;;;;;2038630;29;20028;-67
2023/04/04 02:13:43;;;;;;;13.98;8.98;;;;;;;;;;2037338;29;20040;-68
2023/04/04 02:15:04;;;;;;;13.15;9.55;;;;;;;;;;2032594;29;20567;-67
2023/04/04 02:16:25;;;;;;;12.57;9.57;;;;;;;;;;2033879;29;20471;-67
2023/04/04 02:17:47;;;;;;;17.67;10.33;;;;;;;;;;2036821;28;20352;-68
2023/04/04 02:19:08;;;;;;;18.52;9.70;;;;;;;;;;2038409;29;20047;-67
2023/04/04 02:20:29;;;;;;;12.82;9.10;;;;;;;;;;2031001;29;20207;-67
2023/04/04 02:21:50;;;;;;;16.35;9.80;;;;;;;;;;2036255;29;20039;-67
2023/04/04 02:23:11;;;;;;;18.27;9.70;;;;;;;;;;2039433;29;20459;-67
2023/04/04 02:24:32;;;;;;;16.73;9.10;;;;;;;;;;2040308;29;20070;-67
2023/04/04 02:25:53;;;;;;;13.70;8.88;;;;;;;;;;2039401;29;20035;-67
2023/04/04 02:27:13;;;;;;;13.23;9.48;;;;;;;;;;2039358;29;20095;-67
2023/04/04 02:28:34;;;;;;;12.60;9.05;;;;;;;;;;2037976;28;20054;-67
2023/04/04 02:29:55;;;;;;;13.23;9.80;;;;;;;;;;2039695;29;20031;-67
2023/04/04 02:31:16;;;;;;;12.27;9.70;;;;;;;;;;2029525;29;20020;-67
2023/04/04 02:32:37;;;;;;;17.08;9.45;;;;;;;;;;2036715;29;20028;-67
2023/04/04 02:33:58;;;;;;;16.13;10.40;;;;;;;;;;2039097;29;20079;-67
2023/04/04 02:35:19;;;;;;;10.45;8.63;;;;;;;;;;2039228;29;20027;-67
2023/04/04 02:36:40;;;;;;;20.45;10.68;;;;;;;;;;2033114;29;20043;-67
2023/04/04 02:38:01;;;;;;;13.38;9.38;;;;;;;;;;2034406;29;20487;-67
2023/04/04 02:39:22;;;;;;;12.43;9.13;;;;;;;;;;2030151;29;20036;-67
2023/04/04 02:40:46;;;;;;;17.17;10.40;;;;;;;;;;2032379;29;20075;-67
2023/04/04 02:42:07;;;;;;;21.60;10.73;;;;;;;;;;2039090;29;20514;-67
2023/04/04 02:43:28;;;;;;;15.70;9.68;;;;;;;;;;2032624;29;20127;-68
2023/04/04 02:44:49;;;;;;;13.20;9.75;;;;;;;;;;2036871;29;20036;-67
2023/04/04 02:46:10;;;;;;;12.50;8.88;;;;;;;;;;2037213;29;20035;-67
2023/04/04 02:47:31;;;;;;;15.73;10.27;;;;;;;;;;2037699;29;20039;-67
2023/04/04 02:48:52;;;;;;;14.03;9.13;;;;;;;;;;2029114;29;20040;-67
2023/04/04 02:50:13;;;;;;;12.35;8.82;;;;;;;;;;2037966;29;20443;-67
2023/04/04 02:51:34;;;;;;;14.98;10.05;;;;;;;;;;2029804;29;20032;-67
2023/04/04 02:52:59;;;;;;;13.57;9.65;;;;;;;;;;2033773;29;20416;-67
2023/04/04 02:54:20;;;;;;;17.73;10.38;;;;;;;;;;2036925;29;20136;-67
2023/04/04 02:55:41;;;;;;;11.30;8.85;;;;;;;;;;2033167;29;20059;-67
2023/04/04 02:57:03;;;;;;;12.65;9.75;;;;;;;;;;2034772;29;20063;-68
2023/04/04 02:58:24;;;;;;;16.33;9.68;;;;;;;;;;2029236;29;20052;-67
2023/04/04 02:59:45;;;;;;;15.18;10.13;;;;;;;;;;2037081;29;20055;-72
2023/04/04 03:01:06;;;;;;;16.40;10.80;;;;;;;;;;2039456;29;20423;-71
2023/04/04 03:02:27;;;;;;;14.57;9.63;;;;;;;;;;2038334;29;20102;-71
2023/04/04 03:03:48;;;;;;;13.32;9.13;;;;;;;;;;2039130;29;20040;-71
2023/04/04 03:05:09;;;;;;;15.88;9.93;;;;;;;;;;2039447;29;20043;-71
2023/04/04 03:06:30;;;;;;;14.30;9.75;;;;;;;;;;2034789;29;20140;-71
2023/04/04 03:07:55;;;;;;;13.13;10.18;;;;;;;;;;2036913;29;20032;-71
2023/04/04 03:09:16;;;;;;;15.32;9.90;;;;;;;;;;2030366;29;20035;-71
2023/04/04 03:10:36;;;;;;;20.55;11.18;;;;;;;;;;2036255;29;20023;-71
2023/04/04 03:12:00;;;;;;;15.93;10.98;;;;;;;;;;2038137;29;20153;-71
2023/04/04 03:13:20;;;;;;;15.88;10.02;;;;;;;;;;2038510;29;20028;-71
2023/04/04 03:14:41;;;;;;;18.10;9.90;;;;;;;;;;2038456;29;20564;-71
2023/04/04 03:16:05;;;;;;;15.98;9.85;;;;;;;;;;2038552;29;20142;-71
2023/04/04 03:17:25;;;;;;;13.80;9.95;;;;;;;;;;2037986;29;20087;-71
2023/04/04 03:18:46;;;;;;;14.93;10.05;;;;;;;;;;2030096;29;20083;-71
2023/04/04 03:20:08;;;;;;;13.57;9.60;;;;;;;;;;2032176;29;20032;-71
2023/04/04 03:21:29;;;;;;;18.45;9.70;;;;;;;;;;2038345;29;20438;-71
2023/04/04 03:22:50;;;;;;;14.70;9.65;;;;;;;;;;2036694;29;20072;-71
2023/04/04 03:24:11;;;;;;;10.85;8.68;;;;;;;;;;2039701;29;20040;-72
2023/04/04 03:25:32;;;;;;;16.95;10.00;;;;;;;;;;2033682;29;20052;-71
2023/04/04 03:26:53;;;;;;;18.35;10.10;;;;;;;;;;2034763;29;20427;-72
2023/04/04 03:28:14;;;;;;;13.98;10.38;;;;;;;;;;2040531;29;20036;-71
2023/04/04 03:29:34;;;;;;;14.35;9.02;;;;;;;;;;2034954;29;20031;-71
2023/04/04 03:30:56;;;;;;;26.05;11.77;;;;;;;;;;2040920;29;20035;-71
2023/04/04 03:32:17;;;;;;;13.48;10.43;;;;;;;;;;2039675;29;20036;-71
2023/04/04 03:33:38;;;;;;;21.20;11.15;;;;;;;;;;2031846;29;20503;-71
2023/04/04 03:34:59;;;;;;;14.05;10.00;;;;;;;;;;2035809;29;20042;-71
2023/04/04 03:36:20;;;;;;;13.38;9.23;;;;;;;;;;2039949;29;20038;-72
2023/04/04 03:37:41;;;;;;;12.63;9.23;;;;;;;;;;2039941;29;20561;-71
2023/04/04 03:39:02;;;;;;;13.48;9.85;;;;;;;;;;2022935;29;20044;-71
2023/04/04 03:40:23;;;;;;;16.10;11.48;;;;;;;;;;2034745;29;20044;-71
2023/04/04 03:41:44;;;;;;;12.38;9.57;;;;;;;;;;2037697;29;20040;-71
2023/04/04 03:43:06;;;;;;;15.27;10.25;;;;;;;;;;2039899;29;20035;-71
2023/04/04 03:44:27;;;;;;;15.15;10.75;;;;;;;;;;2036991;29;20038;-71
2023/04/04 03:45:48;;;;;;;13.15;10.48;;;;;;;;;;2037667;29;20063;-71
2023/04/04 03:47:09;;;;;;;15.18;11.05;;;;;;;;;;2037611;29;20043;-71
2023/04/04 03:48:30;;;;;;;14.90;10.65;;;;;;;;;;2035629;28;20503;-71
2023/04/04 03:49:51;;;;;;;14.07;10.52;;;;;;;;;;2031919;29;20083;-71
2023/04/04 03:51:12;;;;;;;25.30;12.13;;;;;;;;;;2033839;29;20032;-71
2023/04/04 03:52:36;;;;;;;11.15;9.18;;;;;;;;;;2040056;29;20031;-71
2023/04/04 03:53:57;;;;;;;12.80;9.35;;;;;;;;;;2036982;29;20083;-71
2023/04/04 03:55:18;;;;;;;16.02;10.25;;;;;;;;;;2038031;29;20036;-71
2023/04/04 03:56:38;;;;;;;16.13;11.30;;;;;;;;;;2036981;29;20482;-71
2023/04/04 03:57:59;;;;;;;18.85;11.05;;;;;;;;;;2027757;29;20036;-71
2023/04/04 03:59:20;;;;;;;16.52;10.70;;;;;;;;;;2037337;29;20047;-71
2023/04/04 04:00:41;;;;;;;13.57;10.10;;;;;;;;;;2036002;29;20129;-71
2023/04/04 04:02:02;;;;;;;13.45;9.60;;;;;;;;;;2028998;29;20131;-72
2023/04/04 04:03:23;;;;;;;19.70;11.57;;;;;;;;;;2034595;29;20040;-71
2023/04/04 04:04:44;;;;;;;13.57;10.02;;;;;;;;;;2039979;29;20475;-72
2023/04/04 04:06:05;;;;;;;11.45;9.73;;;;;;;;;;2039726;29;20043;-71
2023/04/04 04:07:26;;;;;;;12.25;10.38;;;;;;;;;;2040053;29;20032;-71
2023/04/04 04:08:47;;;;;;;19.40;11.23;;;;;;;;;;2039298;29;20415;-71
2023/04/04 04:10:08;;;;;;;19.27;10.73;;;;;;;;;;2030860;29;20032;-71
2023/04/04 04:11:29;;;;;;;20.00;11.85;;;;;;;;;;2032933;29;20051;-72
2023/04/04 04:12:50;;;;;;;14.20;10.27;;;;;;;;;;2037394;29;20044;-71
2023/04/04 04:14:11;;;;;;;16.13;10.77;;;;;;;;;;2039231;29;20111;-72
2023/04/04 04:15:32;;;;;;;21.23;10.88;;;;;;;;;;2038729;29;20482;-71
2023/04/04 04:16:53;;;;;;;14.52;10.13;;;;;;;;;;2040176;29;20043;-71
2023/04/04 04:18:14;;;;;;;10.68;9.10;;;;;;;;;;2031566;29;20083;-72
2023/04/04 04:19:35;;;;;;;17.35;11.18;;;;;;;;;;2030755;29;20043;-72
2023/04/04 04:20:58;;;;;;;16.23;10.63;;;;;;;;;;2034719;29;20387;-71
2023/04/04 04:22:19;;;;;;;24.33;10.40;;;;;;;;;;2028724;29;20044;-71
2023/04/04 04:23:40;;;;;;;18.35;10.90;;;;;;;;;;2034685;29;20511;-71
2023/04/04 04:25:00;;;;;;;12.32;9.80;;;;;;;;;;2037880;29;20070;-71
2023/04/04 04:26:21;;;;;;;18.38;11.55;;;;;;;;;;2036221;29;20043;-71
2023/04/04 04:27:43;;;;;;;14.10;10.27;;;;;;;;;;2037406;29;20570;-71
2023/04/04 04:29:04;;;;;;;18.02;10.25;;;;;;;;;;2036908;29;20031;-71
2023/04/04 04:30:25;;;;;;;17.17;10.18;;;;;;;;;;2034394;29;20455;-72
2023/04/04 04:31:46;;;;;;;13.35;10.43;;;;;;;;;;2028647;29;20036;-71
2023/04/04 04:33:07;;;;;;;21.15;11.38;;;;;;;;;;2034655;29;20027;-71
2023/04/04 04:34:28;;;;;;;14.48;10.20;;;;;;;;;;2030147;29;20095;-71
2023/04/04 04:35:49;;;;;;;21.48;10.93;;;;;;;;;;2034346;29;20039;-71
2023/04/04 04:37:10;;;;;;;21.75;12.05;;;;;;;;;;2027175;29;20123;-71
2023/04/04 04:38:31;;;;;;;19.27;11.57;;;;;;;;;;2033135;29;20035;-72
2023/04/04 04:39:52;;;;;;;22.67;12.27;;;;;;;;;;2036179;29;20043;-71
2023/04/04 04:41:13;;;;;;;21.15;10.70;;;;;;;;;;2032540;29;20775;-71
2023/04/04 04:42:34;;;;;;;15.95;9.95;;;;;;;;;;2035243;29;20186;-71
2023/04/04 04:43:55;;;;;;;12.70;10.17;;;;;;;;;;2028625;29;20040;-71
2023/04/04 04:45:16;;;;;;;17.35;11.43;;;;;;;;;;2034036;29;20430;-72
2023/04/04 04:46:37;;;;;;;17.60;10.30;;;;;;;;;;2029892;28;20858;-71
2023/04/04 04:47:58;;;;;;;16.08;10.43;;;;;;;;;;2036649;29;20372;-71
2023/04/04 04:49:19;;;;;;;11.70;9.32;;;;;;;;;;2036113;29;20130;-71
2023/04/04 04:50:41;;;;;;;17.63;11.18;;;;;;;;;;2037470;29;20347;-72
2023/04/04 04:52:02;;;;;;;12.80;10.23;;;;;;;;;;2037242;29;20091;-72
2023/04/04 04:53:23;;;;;;;14.48;10.38;;;;;;;;;;2038931;29;20490;-71
2023/04/04 04:54:44;;;;;;;13.98;10.13;;;;;;;;;;2037218;29;20040;-71
2023/04/04 04:56:05;;;;;;;16.17;10.57;;;;;;;;;;2040447;29;20075;-71
2023/04/04 04:57:27;;;;;;;19.20;12.13;;;;;;;;;;2031193;29;20091;-71
2023/04/04 04:58:49;;;;;;;25.40;12.02;;;;;;;;;;2033434;29;20139;-72
2023/04/04 05:00:11;;;;;;;17.73;10.30;;;;;;;;;;2036246;29;20451;-71
2023/04/04 05:01:32;;;;;;;17.45;10.95;;;;;;;;;;2037159;29;20094;-73
2023/04/04 05:02:55;;;;;;;24.95;12.13;;;;;;;;;;2020566;29;20070;-71
2023/04/04 05:04:16;;;;;;;25.52;12.38;;;;;;;;;;2020577;29;20115;-72
2023/04/04 05:05:37;;;;;;;21.02;11.13;;;;;;;;;;2022669;29;20044;-72
2023/04/04 05:06:58;;;;;;;15.68;10.60;;;;;;;;;;2021179;29;20386;-71
2023/04/04 05:08:19;;;;;;;21.55;11.60;;;;;;;;;;2020270;29;20104;-72
2023/04/04 05:09:40;;;;;;;20.20;10.65;;;;;;;;;;2020017;29;20116;-71
2023/04/04 05:11:01;;;;;;;16.45;10.35;;;;;;;;;;2019740;29;20028;-72
2023/04/04 05:12:22;;;;;;;12.40;10.40;;;;;;;;;;2022419;29;20051;-71
2023/04/04 05:13:43;;;;;;;16.45;10.23;;;;;;;;;;2022778;29;20564;-71
2023/04/04 05:15:05;;;;;;;16.85;10.52;;;;;;;;;;2021486;29;20037;-71
2023/04/04 05:16:26;;;;;;;24.05;11.57;;;;;;;;;;2020536;29;20032;-71
2023/04/04 05:17:47;;;;;;;16.88;10.63;;;;;;;;;;2027559;29;20029;-71
2023/04/04 05:19:08;;;;;;;18.45;11.75;;;;;;;;;;2021485;29;20052;-72
2023/04/04 05:20:29;;;;;;;19.48;12.27;;;;;;;;;;2022142;29;20116;-71
2023/04/04 05:21:50;;;;;;;15.98;10.77;;;;;;;;;;2020319;29;20551;-71
2023/04/04 05:23:11;;;;;;;15.40;10.95;;;;;;;;;;2032586;29;20467;-71
2023/04/04 05:24:32;;;;;;;18.48;11.30;;;;;;;;;;2024756;29;20037;-71
2023/04/04 05:25:53;;;;;;;16.90;11.00;;;;;;;;;;2021458;29;20044;-71
2023/04/04 05:27:14;;;;;;;19.02;11.55;;;;;;;;;;2021804;29;20104;-71
2023/04/04 05:28:35;;;;;;;13.55;10.40;;;;;;;;;;2020083;29;20097;-71
2023/04/04 05:29:56;;;;;;;15.65;9.80;;;;;;;;;;2022799;29;20073;-71
2023/04/04 05:31:17;;;;;;;21.25;10.63;;;;;;;;;;2030322;29;20032;-71
2023/04/04 05:32:38;;;;;;;17.88;10.27;;;;;;;;;;2025813;29;20434;-71
2023/04/04 05:34:06;;;;;;;18.45;11.95;;;;;;;;;;2023799;29;20045;-71
2023/04/04 05:35:27;;;;;;;18.00;10.88;;;;;;;;;;2022958;29;20092;-72
2023/04/04 05:36:48;;;;;;;22.65;11.90;;;;;;;;;;2020817;29;20052;-72
2023/04/04 05:38:09;;;;;;;22.58;11.68;;;;;;;;;;2022734;29;20421;-72
2023/04/04 05:39:30;;;;;;;15.68;10.82;;;;;;;;;;2026057;29;20649;-72
2023/04/04 05:40:54;;;;;;;14.25;10.48;;;;;;;;;;2025903;29;20040;-72
2023/04/04 05:42:15;;;;;;;16.98;10.32;;;;;;;;;;2019923;29;20032;-72
2023/04/04 05:43:38;;;;;;;16.63;11.68;;;;;;;;;;2021408;29;20096;-71
2023/04/04 05:44:59;;;;;;;17.85;11.25;;;;;;;;;;2022678;29;20082;-72
2023/04/04 05:46:20;;;;;;;15.13;11.68;;;;;;;;;;2023427;29;20459;-71
2023/04/04 05:47:42;;;;;;;15.30;11.13;;;;;;;;;;2026801;29;20075;-72
2023/04/04 05:49:04;;;;;;;16.40;11.57;;;;;;;;;;2024944;29;20095;-72
2023/04/04 05:50:24;;;;;;;18.17;10.50;;;;;;;;;;2023000;29;20097;-72
2023/04/04 05:51:46;;;;;;;14.25;10.40;;;;;;;;;;2022653;29;20037;-72
2023/04/04 05:53:07;;;;;;;16.73;11.40;;;;;;;;;;2023131;29;20040;-72
2023/04/04 05:54:28;;;;;;;17.35;11.63;;;;;;;;;;2023650;29;20092;-72
2023/04/04 05:55:52;;;;;;;14.10;10.85;;;;;;;;;;2027061;29;20036;-72
2023/04/04 05:57:13;;;;;;;16.90;11.57;;;;;;;;;;2024813;29;20032;-72
2023/04/04 05:58:33;;;;;;;11.95;10.77;;;;;;;;;;2021002;29;20036;-72
2023/04/04 05:59:54;;;;;;;15.02;10.77;;;;;;;;;;2019199;29;20113;-72
2023/04/04 06:01:17;;;;;;;16.67;11.18;;;;;;;;;;2022147;29;20037;-73
2023/04/04 06:02:38;;;;;;;15.23;10.75;;;;;;;;;;2036419;29;20043;-72
2023/04/04 06:03:59;;;;;;;23.27;12.30;;;;;;;;;;2029405;29;20036;-73
2023/04/04 06:05:20;;;;;;;20.42;11.90;;;;;;;;;;2034165;29;20039;-72
2023/04/04 06:06:41;;;;;;;16.55;11.35;;;;;;;;;;2037641;29;20559;-73
2023/04/04 06:08:02;;;;;;;12.73;10.50;;;;;;;;;;2037867;29;20040;-74
2023/04/04 06:09:23;;;;;;;13.63;10.30;;;;;;;;;;2028654;29;20047;-73
2023/04/04 06:10:44;;;;;;;17.55;11.80;;;;;;;;;;2034411;29;20027;-73
2023/04/04 06:12:04;;;;;;;18.13;11.35;;;;;;;;;;2036492;29;20028;-73
2023/04/04 06:13:25;;;;;;;15.02;10.77;;;;;;;;;;2038648;29;20099;-73
2023/04/04 06:14:46;;;;;;;12.65;9.75;;;;;;;;;;2039449;29;20487;-74
2023/04/04 06:16:07;;;;;;;16.80;11.25;;;;;;;;;;2037157;29;20044;-73
2023/04/04 06:17:28;;;;;;;13.15;10.73;;;;;;;;;;2036777;29;20040;-73
2023/04/04 06:18:49;;;;;;;17.35;10.95;;;;;;;;;;2030559;29;22017;-73
2023/04/04 06:20:10;;;;;;;12.90;10.20;;;;;;;;;;2032474;29;20047;-73
2023/04/04 06:21:31;;;;;;;14.45;10.57;;;;;;;;;;2032419;29;20047;-73
2023/04/04 06:22:52;;;;;;;15.80;10.75;;;;;;;;;;2045409;29;20494;-73
2023/04/04 06:24:14;;;;;;;11.85;10.40;;;;;;;;;;2031159;29;20059;-73
2023/04/04 06:25:35;;;;;;;18.17;11.07;;;;;;;;;;2033840;29;20039;-73
2023/04/04 06:26:56;;;;;;;16.58;11.82;;;;;;;;;;2036802;29;20031;-73
2023/04/04 06:28:16;;;;;;;13.55;10.77;;;;;;;;;;2035592;29;20035;-71
2023/04/04 06:29:37;;;;;;;18.77;10.80;;;;;;;;;;2038745;29;20337;-73
2023/04/04 06:30:58;;;;;;;15.82;11.00;;;;;;;;;;2041536;29;20039;-72
2023/04/04 06:32:21;;;;;;;15.48;9.82;;;;;;;;;;2041628;29;20036;-73
2023/04/04 06:33:42;;;;;;;13.40;10.20;;;;;;;;;;2031642;29;20035;-72
2023/04/04 06:35:03;;;;;;;12.93;10.43;;;;;;;;;;2036863;29;20051;-72
2023/04/04 06:36:24;;;;;;;23.80;13.07;;;;;;;;;;2037334;29;20036;-72
2023/04/04 06:37:45;;;;;;;14.75;10.63;;;;;;;;;;2038488;29;20040;-72
2023/04/04 06:39:06;;;;;;;20.30;12.02;;;;;;;;;;2035287;29;20036;-72
2023/04/04 06:40:27;;;;;;;14.23;10.82;;;;;;;;;;2032884;29;20088;-73
2023/04/04 06:41:47;;;;;;;14.95;10.77;;;;;;;;;;2038902;29;20023;-72
2023/04/04 06:43:09;;;;;;;21.30;11.07;;;;;;;;;;2040999;29;20039;-73
2023/04/04 06:44:30;;;;;;;13.80;10.68;;;;;;;;;;2036903;29;20031;-72
2023/04/04 06:45:51;;;;;;;17.05;10.70;;;;;;;;;;2036157;29;20455;-72
2023/04/04 06:47:12;;;;;;;17.27;10.93;;;;;;;;;;2042325;29;20042;-72
2023/04/04 06:48:33;;;;;;;13.25;10.40;;;;;;;;;;2038309;29;20048;-72
2023/04/04 06:49:54;;;;;;;21.13;12.48;;;;;;;;;;2040353;29;20035;-72
2023/04/04 06:51:15;;;;;;;17.05;10.90;;;;;;;;;;2039656;29;20040;-72
2023/04/04 06:52:36;;;;;;;17.83;11.52;;;;;;;;;;2032252;29;20032;-72
2023/04/04 06:53:57;;;;;;;18.40;10.05;;;;;;;;;;2034938;29;20455;-72
2023/04/04 06:55:18;;;;;;;15.18;10.70;;;;;;;;;;2040483;29;20055;-72
2023/04/04 06:56:39;;;;;;;15.85;11.15;;;;;;;;;;2038179;29;20556;-72
2023/04/04 06:58:00;;;;;;;14.75;10.10;;;;;;;;;;2031119;29;20053;-72
2023/04/04 06:59:20;;;;;;;13.50;8.88;;;;;;;;;;2035900;29;20039;-72
2023/04/04 07:00:41;;;;;;;14.15;8.85;;;;;;;;;;2037905;29;20024;-72
2023/04/04 07:02:02;;;;;;;12.50;8.02;;;;;;;;;;2038233;29;20052;-72
2023/04/04 07:03:23;;;;;;;18.02;8.88;;;;;;;;;;2037558;29;20035;-72
2023/04/04 07:04:44;;;;;;;14.43;8.95;;;;;;;;;;2041450;29;20087;-72
2023/04/04 07:06:05;;;;;;;15.30;8.18;;;;;;;;;;2038520;29;20432;-72
2023/04/04 07:07:26;;;;;;;13.38;8.20;;;;;;;;;;2039682;29;20035;-72
2023/04/04 07:08:47;;;;;;;13.52;7.60;;;;;;;;;;2031035;29;20031;-72
2023/04/04 07:10:08;;;;;;;14.23;8.02;;;;;;;;;;2036700;29;20163;-73
2023/04/04 07:11:29;;;;;;;19.80;9.50;;;;;;;;;;2038634;29;20024;-72
2023/04/04 07:12:50;;;;;;;16.83;8.40;;;;;;;;;;2031939;29;20507;-72
2023/04/04 07:14:11;;;;;;;18.02;8.18;;;;;;;;;;2035675;29;20036;-72
2023/04/04 07:15:32;;;;;;;17.17;7.35;;;;;;;;;;2042042;29;20043;-72
2023/04/04 07:16:53;;;;;;;12.13;7.30;;;;;;;;;;2038124;29;20040;-72
2023/04/04 07:18:14;;;;;;;20.25;9.60;;;;;;;;;;2038574;29;20047;-72
2023/04/04 07:19:35;;;;;;;10.55;6.78;;;;;;;;;;2044380;29;20031;-73
2023/04/04 07:20:57;;;;;;;13.63;8.30;;;;;;;;;;2040485;29;20031;-72
2023/04/04 07:22:18;;;;;;;15.70;9.13;;;;;;;;;;2038973;29;21562;-72
2023/04/04 07:23:39;;;;;;;13.25;8.48;;;;;;;;;;2037291;29;20043;-72
2023/04/04 07:24:59;;;;;;;13.02;9.18;;;;;;;;;;2040597;29;20039;-73
2023/04/04 07:26:20;;;;;;;12.32;8.38;;;;;;;;;;2039560;29;20046;-73
2023/04/04 07:27:41;;;;;;;15.18;9.13;;;;;;;;;;2041317;29;20495;-72
2023/04/04 07:29:02;;;;;;;16.35;10.13;;;;;;;;;;2038220;29;20039;-73
2023/04/04 07:30:27;;;;;;;12.30;9.00;;;;;;;;;;2039423;29;20020;-73
2023/04/04 07:31:48;;;;;;;13.07;9.38;;;;;;;;;;2028637;29;20456;-72
2023/04/04 07:33:09;;;;;;;15.73;9.15;;;;;;;;;;2035064;29;20032;-72
2023/04/04 07:34:30;;;;;;;16.50;9.57;;;;;;;;;;2030487;29;20036;-73
2023/04/04 07:35:52;;;;;;;13.95;9.32;;;;;;;;;;2034149;29;20035;-74
2023/04/04 07:37:12;;;;;;;14.75;9.27;;;;;;;;;;2030976;29;20076;-72
2023/04/04 07:38:33;;;;;;;17.30;9.43;;;;;;;;;;2032940;29;20054;-71
2023/04/04 07:39:54;;;;;;;12.00;8.98;;;;;;;;;;2038402;29;20491;-73
2023/04/04 07:41:15;;;;;;;10.15;7.45;;;;;;;;;;2039402;29;20086;-72
2023/04/04 07:42:42;;;;;;;13.68;8.93;;;;;;;;;;2038898;29;20032;-72
2023/04/04 07:44:02;;;;;;;21.08;9.57;;;;;;;;;;2036003;29;20087;-73
2023/04/04 07:45:23;;;;;;;14.35;8.32;;;;;;;;;;2037647;29;20361;-73
2023/04/04 07:46:44;;;;;;;21.83;8.95;;;;;;;;;;2037553;29;20031;-72
2023/04/04 07:48:05;;;;;;;11.27;7.68;;;;;;;;;;2041260;29;20114;-72
2023/04/04 07:49:26;;;;;;;14.57;8.65;;;;;;;;;;2037225;29;20047;-73
2023/04/04 07:50:47;;;;;;;12.82;7.63;;;;;;;;;;2039112;29;20074;-72
2023/04/04 07:52:08;;;;;;;13.50;7.82;;;;;;;;;;2038116;29;20024;-73
2023/04/04 07:53:29;;;;;;;12.65;7.93;;;;;;;;;;2040467;29;20047;-73
2023/04/04 07:54:51;;;;;;;14.18;8.00;;;;;;;;;;2040583;29;20058;-72
2023/04/04 07:56:12;;;;;;;14.25;7.65;;;;;;;;;;2032890;29;20040;-73
2023/04/04 07:57:36;;;;;;;11.30;7.18;;;;;;;;;;2040127;29;20471;-72